sensor_id;sensor_type;location;lat;lon;timestamp;P1;durP1;ratioP1;P2;durP2;ratioP2
76463;SDS011;65301;46.666;20.110;2022-12-29T00:00:16;24.73;;;12.53;;
76463;SDS011;65301;46.666;20.110;2022-12-29T00:03:18;25.52;;;13.30;;
76463;SDS011;65301;46.666;20.110;2022-12-29T00:06:19;22.65;;;12.57;;
76463;SDS011;65301;46.666;20.110;2022-12-29T00:09:21;24.13;;;12.02;;
76463;SDS011;65301;46.666;20.110;2022-12-29T00:12:23;23.95;;;12.95;;
76463;SDS011;65301;46.666;20.110;2022-12-29T00:15:25;22.70;;;12.07;;
76463;SDS011;65301;46.666;20.110;2022-12-29T00:18:40;22.05;;;11.90;;
76463;SDS011;65301;46.666;20.110;2022-12-29T00:21:42;24.20;;;12.02;;
76463;SDS011;65301;46.666;20.110;2022-12-29T00:25:02;24.17;;;12.50;;
76463;SDS011;65301;46.666;20.110;2022-12-29T00:28:10;22.83;;;12.63;;
76463;SDS011;65301;46.666;20.110;2022-12-29T00:31:30;23.00;;;12.37;;
76463;SDS011;65301;46.666;20.110;2022-12-29T00:34:51;21.17;;;11.57;;
76463;SDS011;65301;46.666;20.110;2022-12-29T00:38:11;22.60;;;11.52;;
76463;SDS011;65301;46.666;20.110;2022-12-29T00:41:32;17.60;;;10.32;;
76463;SDS011;65301;46.666;20.110;2022-12-29T00:44:53;19.17;;;10.60;;
76463;SDS011;65301;46.666;20.110;2022-12-29T00:47:55;20.60;;;11.03;;
76463;SDS011;65301;46.666;20.110;2022-12-29T00:50:56;21.98;;;11.25;;
76463;SDS011;65301;46.666;20.110;2022-12-29T00:53:58;20.13;;;12.23;;
76463;SDS011;65301;46.666;20.110;2022-12-29T00:57:00;23.58;;;13.07;;
76463;SDS011;65301;46.666;20.110;2022-12-29T01:00:02;20.90;;;12.20;;
76463;SDS011;65301;46.666;20.110;2022-12-29T01:03:04;25.17;;;12.87;;
76463;SDS011;65301;46.666;20.110;2022-12-29T01:06:07;25.50;;;12.38;;
76463;SDS011;65301;46.666;20.110;2022-12-29T01:09:11;22.92;;;12.52;;
76463;SDS011;65301;46.666;20.110;2022-12-29T01:12:33;24.02;;;12.70;;
76463;SDS011;65301;46.666;20.110;2022-12-29T01:15:50;23.80;;;12.32;;
76463;SDS011;65301;46.666;20.110;2022-12-29T01:18:52;22.80;;;11.90;;
76463;SDS011;65301;46.666;20.110;2022-12-29T01:21:54;21.67;;;11.77;;
76463;SDS011;65301;46.666;20.110;2022-12-29T01:24:55;21.05;;;12.15;;
76463;SDS011;65301;46.666;20.110;2022-12-29T01:27:57;20.15;;;11.45;;
76463;SDS011;65301;46.666;20.110;2022-12-29T01:31:00;16.88;;;10.15;;
76463;SDS011;65301;46.666;20.110;2022-12-29T01:34:02;21.87;;;11.03;;
76463;SDS011;65301;46.666;20.110;2022-12-29T01:37:04;22.15;;;11.32;;
76463;SDS011;65301;46.666;20.110;2022-12-29T01:40:06;25.15;;;13.15;;
76463;SDS011;65301;46.666;20.110;2022-12-29T01:43:10;22.63;;;11.55;;
76463;SDS011;65301;46.666;20.110;2022-12-29T01:49:27;28.33;;;12.80;;
76463;SDS011;65301;46.666;20.110;2022-12-29T01:52:31;24.95;;;12.60;;
76463;SDS011;65301;46.666;20.110;2022-12-29T01:55:42;26.08;;;14.43;;
76463;SDS011;65301;46.666;20.110;2022-12-29T01:58:54;25.90;;;13.25;;
76463;SDS011;65301;46.666;20.110;2022-12-29T02:02:01;24.83;;;13.75;;
76463;SDS011;65301;46.666;20.110;2022-12-29T02:05:05;26.73;;;13.63;;
76463;SDS011;65301;46.666;20.110;2022-12-29T02:08:11;27.95;;;13.55;;
76463;SDS011;65301;46.666;20.110;2022-12-29T02:11:15;27.73;;;13.10;;
76463;SDS011;65301;46.666;20.110;2022-12-29T02:14:18;32.03;;;16.05;;
76463;SDS011;65301;46.666;20.110;2022-12-29T02:37:27;22.20;;;11.67;;
76463;SDS011;65301;46.666;20.110;2022-12-29T02:47:16;22.85;;;12.10;;
76463;SDS011;65301;46.666;20.110;2022-12-29T02:51:12;21.40;;;11.18;;
76463;SDS011;65301;46.666;20.110;2022-12-29T02:54:19;21.87;;;10.47;;
76463;SDS011;65301;46.666;20.110;2022-12-29T02:57:40;17.50;;;10.45;;
76463;SDS011;65301;46.666;20.110;2022-12-29T03:00:54;18.30;;;9.88;;
76463;SDS011;65301;46.666;20.110;2022-12-29T03:14:37;17.02;;;9.23;;
76463;SDS011;65301;46.666;20.110;2022-12-29T03:18:06;17.48;;;10.25;;
76463;SDS011;65301;46.666;20.110;2022-12-29T03:24:50;15.35;;;9.30;;
76463;SDS011;65301;46.666;20.110;2022-12-29T03:28:03;17.17;;;9.63;;
76463;SDS011;65301;46.666;20.110;2022-12-29T03:31:09;19.77;;;10.75;;
76463;SDS011;65301;46.666;20.110;2022-12-29T03:34:12;16.63;;;8.93;;
76463;SDS011;65301;46.666;20.110;2022-12-29T03:37:20;20.02;;;10.65;;
76463;SDS011;65301;46.666;20.110;2022-12-29T03:40:26;17.05;;;9.88;;
76463;SDS011;65301;46.666;20.110;2022-12-29T03:43:30;20.33;;;9.90;;
76463;SDS011;65301;46.666;20.110;2022-12-29T03:46:33;15.15;;;8.77;;
76463;SDS011;65301;46.666;20.110;2022-12-29T03:49:35;20.45;;;10.23;;
76463;SDS011;65301;46.666;20.110;2022-12-29T03:52:37;17.25;;;9.57;;
76463;SDS011;65301;46.666;20.110;2022-12-29T03:55:38;15.10;;;8.85;;
76463;SDS011;65301;46.666;20.110;2022-12-29T03:58:40;16.27;;;9.00;;
76463;SDS011;65301;46.666;20.110;2022-12-29T04:01:42;17.23;;;9.13;;
76463;SDS011;65301;46.666;20.110;2022-12-29T04:04:44;18.02;;;9.40;;
76463;SDS011;65301;46.666;20.110;2022-12-29T04:07:46;17.92;;;9.40;;
76463;SDS011;65301;46.666;20.110;2022-12-29T04:10:48;20.40;;;10.43;;
76463;SDS011;65301;46.666;20.110;2022-12-29T04:13:51;24.43;;;10.77;;
76463;SDS011;65301;46.666;20.110;2022-12-29T04:16:52;21.40;;;10.52;;
76463;SDS011;65301;46.666;20.110;2022-12-29T04:19:54;19.50;;;10.18;;
76463;SDS011;65301;46.666;20.110;2022-12-29T04:23:17;17.63;;;9.48;;
76463;SDS011;65301;46.666;20.110;2022-12-29T04:26:18;21.60;;;9.25;;
76463;SDS011;65301;46.666;20.110;2022-12-29T04:29:20;15.70;;;8.53;;
76463;SDS011;65301;46.666;20.110;2022-12-29T04:32:22;16.25;;;8.75;;
76463;SDS011;65301;46.666;20.110;2022-12-29T04:35:24;14.10;;;8.27;;
76463;SDS011;65301;46.666;20.110;2022-12-29T04:38:25;17.42;;;9.02;;
76463;SDS011;65301;46.666;20.110;2022-12-29T04:41:27;19.23;;;9.85;;
76463;SDS011;65301;46.666;20.110;2022-12-29T04:44:29;18.73;;;8.50;;
76463;SDS011;65301;46.666;20.110;2022-12-29T04:47:30;15.75;;;8.10;;
76463;SDS011;65301;46.666;20.110;2022-12-29T04:50:32;15.18;;;8.95;;
76463;SDS011;65301;46.666;20.110;2022-12-29T04:53:34;25.13;;;12.27;;
76463;SDS011;65301;46.666;20.110;2022-12-29T04:56:36;21.77;;;12.13;;
76463;SDS011;65301;46.666;20.110;2022-12-29T04:59:38;18.50;;;9.90;;
76463;SDS011;65301;46.666;20.110;2022-12-29T05:02:39;17.95;;;9.40;;
76463;SDS011;65301;46.666;20.110;2022-12-29T05:05:41;18.35;;;9.40;;
76463;SDS011;65301;46.666;20.110;2022-12-29T05:08:43;19.80;;;9.45;;
76463;SDS011;65301;46.666;20.110;2022-12-29T05:11:45;18.52;;;10.50;;
76463;SDS011;65301;46.666;20.110;2022-12-29T05:14:47;15.57;;;8.73;;
76463;SDS011;65301;46.666;20.110;2022-12-29T05:17:48;14.98;;;8.70;;
76463;SDS011;65301;46.666;20.110;2022-12-29T05:20:50;13.98;;;8.48;;
76463;SDS011;65301;46.666;20.110;2022-12-29T05:23:52;17.85;;;9.98;;
76463;SDS011;65301;46.666;20.110;2022-12-29T05:26:54;25.30;;;11.57;;
76463;SDS011;65301;46.666;20.110;2022-12-29T05:29:55;19.07;;;10.33;;
76463;SDS011;65301;46.666;20.110;2022-12-29T05:32:57;17.48;;;9.85;;
76463;SDS011;65301;46.666;20.110;2022-12-29T05:36:06;18.02;;;9.93;;
76463;SDS011;65301;46.666;20.110;2022-12-29T05:39:09;17.10;;;10.35;;
76463;SDS011;65301;46.666;20.110;2022-12-29T05:42:11;27.67;;;10.93;;
76463;SDS011;65301;46.666;20.110;2022-12-29T05:45:12;18.27;;;9.87;;
76463;SDS011;65301;46.666;20.110;2022-12-29T05:48:14;19.00;;;9.63;;
76463;SDS011;65301;46.666;20.110;2022-12-29T05:51:16;19.60;;;11.07;;
76463;SDS011;65301;46.666;20.110;2022-12-29T05:54:18;22.10;;;9.90;;
76463;SDS011;65301;46.666;20.110;2022-12-29T05:57:20;20.73;;;9.95;;
76463;SDS011;65301;46.666;20.110;2022-12-29T06:00:22;17.83;;;10.27;;
76463;SDS011;65301;46.666;20.110;2022-12-29T06:03:23;17.17;;;9.55;;
76463;SDS011;65301;46.666;20.110;2022-12-29T06:06:25;21.02;;;10.55;;
76463;SDS011;65301;46.666;20.110;2022-12-29T06:09:27;19.10;;;9.98;;
76463;SDS011;65301;46.666;20.110;2022-12-29T06:12:29;16.65;;;9.57;;
76463;SDS011;65301;46.666;20.110;2022-12-29T06:15:34;18.20;;;10.67;;
76463;SDS011;65301;46.666;20.110;2022-12-29T06:18:36;18.83;;;10.82;;
76463;SDS011;65301;46.666;20.110;2022-12-29T06:21:38;17.92;;;10.35;;
76463;SDS011;65301;46.666;20.110;2022-12-29T06:24:39;20.83;;;12.23;;
76463;SDS011;65301;46.666;20.110;2022-12-29T06:27:41;18.93;;;11.43;;
76463;SDS011;65301;46.666;20.110;2022-12-29T06:30:44;17.40;;;10.17;;
76463;SDS011;65301;46.666;20.110;2022-12-29T06:33:46;19.23;;;11.05;;
76463;SDS011;65301;46.666;20.110;2022-12-29T06:36:50;21.42;;;10.10;;
76463;SDS011;65301;46.666;20.110;2022-12-29T06:39:52;17.50;;;9.43;;
76463;SDS011;65301;46.666;20.110;2022-12-29T06:42:54;18.27;;;10.30;;
76463;SDS011;65301;46.666;20.110;2022-12-29T06:45:55;19.50;;;10.03;;
76463;SDS011;65301;46.666;20.110;2022-12-29T06:48:57;20.13;;;10.25;;
76463;SDS011;65301;46.666;20.110;2022-12-29T06:51:59;20.25;;;10.85;;
76463;SDS011;65301;46.666;20.110;2022-12-29T06:55:02;17.33;;;10.30;;
76463;SDS011;65301;46.666;20.110;2022-12-29T06:58:03;21.43;;;10.27;;
76463;SDS011;65301;46.666;20.110;2022-12-29T07:01:05;17.57;;;10.80;;
76463;SDS011;65301;46.666;20.110;2022-12-29T07:04:07;19.92;;;10.10;;
76463;SDS011;65301;46.666;20.110;2022-12-29T07:07:09;19.83;;;10.38;;
76463;SDS011;65301;46.666;20.110;2022-12-29T07:10:11;65.45;;;22.20;;
76463;SDS011;65301;46.666;20.110;2022-12-29T07:13:13;116.40;;;34.20;;
76463;SDS011;65301;46.666;20.110;2022-12-29T07:16:15;73.65;;;24.65;;
76463;SDS011;65301;46.666;20.110;2022-12-29T07:19:17;32.40;;;14.15;;
76463;SDS011;65301;46.666;20.110;2022-12-29T07:22:19;35.78;;;15.82;;
76463;SDS011;65301;46.666;20.110;2022-12-29T07:25:21;31.50;;;14.18;;
76463;SDS011;65301;46.666;20.110;2022-12-29T07:28:23;31.40;;;17.00;;
76463;SDS011;65301;46.666;20.110;2022-12-29T07:31:25;40.35;;;22.08;;
76463;SDS011;65301;46.666;20.110;2022-12-29T07:34:27;41.50;;;24.17;;
76463;SDS011;65301;46.666;20.110;2022-12-29T07:37:28;56.90;;;30.25;;
76463;SDS011;65301;46.666;20.110;2022-12-29T07:40:30;46.78;;;27.85;;
76463;SDS011;65301;46.666;20.110;2022-12-29T07:43:32;45.23;;;24.97;;
76463;SDS011;65301;46.666;20.110;2022-12-29T07:46:34;43.08;;;25.02;;
76463;SDS011;65301;46.666;20.110;2022-12-29T07:49:55;37.80;;;22.60;;
76463;SDS011;65301;46.666;20.110;2022-12-29T07:52:57;29.27;;;17.10;;
76463;SDS011;65301;46.666;20.110;2022-12-29T07:55:59;20.85;;;12.60;;
76463;SDS011;65301;46.666;20.110;2022-12-29T07:59:01;25.47;;;12.97;;
76463;SDS011;65301;46.666;20.110;2022-12-29T08:02:03;23.65;;;13.48;;
76463;SDS011;65301;46.666;20.110;2022-12-29T08:05:05;25.75;;;12.93;;
76463;SDS011;65301;46.666;20.110;2022-12-29T08:08:07;23.77;;;12.93;;
76463;SDS011;65301;46.666;20.110;2022-12-29T08:11:08;23.05;;;12.20;;
76463;SDS011;65301;46.666;20.110;2022-12-29T08:14:10;22.53;;;12.83;;
76463;SDS011;65301;46.666;20.110;2022-12-29T08:17:12;19.40;;;12.07;;
76463;SDS011;65301;46.666;20.110;2022-12-29T08:20:14;19.83;;;11.07;;
76463;SDS011;65301;46.666;20.110;2022-12-29T08:23:16;20.33;;;12.20;;
76463;SDS011;65301;46.666;20.110;2022-12-29T08:26:17;22.15;;;13.18;;
76463;SDS011;65301;46.666;20.110;2022-12-29T08:29:19;18.97;;;10.73;;
76463;SDS011;65301;46.666;20.110;2022-12-29T08:32:22;22.77;;;12.15;;
76463;SDS011;65301;46.666;20.110;2022-12-29T08:35:24;19.60;;;12.55;;
76463;SDS011;65301;46.666;20.110;2022-12-29T08:38:26;16.90;;;11.85;;
76463;SDS011;65301;46.666;20.110;2022-12-29T08:41:29;17.98;;;12.15;;
76463;SDS011;65301;46.666;20.110;2022-12-29T08:44:31;20.03;;;12.43;;
76463;SDS011;65301;46.666;20.110;2022-12-29T08:47:33;18.33;;;12.10;;
76463;SDS011;65301;46.666;20.110;2022-12-29T08:50:34;20.25;;;12.15;;
76463;SDS011;65301;46.666;20.110;2022-12-29T08:53:36;18.95;;;12.15;;
76463;SDS011;65301;46.666;20.110;2022-12-29T08:56:38;22.90;;;12.55;;
76463;SDS011;65301;46.666;20.110;2022-12-29T08:59:40;19.90;;;11.70;;
76463;SDS011;65301;46.666;20.110;2022-12-29T09:02:41;18.92;;;12.32;;
76463;SDS011;65301;46.666;20.110;2022-12-29T09:05:46;21.02;;;12.13;;
76463;SDS011;65301;46.666;20.110;2022-12-29T09:08:53;22.90;;;12.52;;
76463;SDS011;65301;46.666;20.110;2022-12-29T09:11:55;22.75;;;13.32;;
76463;SDS011;65301;46.666;20.110;2022-12-29T09:14:57;23.40;;;14.10;;
76463;SDS011;65301;46.666;20.110;2022-12-29T09:17:59;27.70;;;14.55;;
76463;SDS011;65301;46.666;20.110;2022-12-29T09:21:01;25.13;;;15.80;;
76463;SDS011;65301;46.666;20.110;2022-12-29T09:24:04;26.17;;;14.23;;
76463;SDS011;65301;46.666;20.110;2022-12-29T09:27:06;22.23;;;13.18;;
76463;SDS011;65301;46.666;20.110;2022-12-29T09:30:09;21.23;;;12.50;;
76463;SDS011;65301;46.666;20.110;2022-12-29T09:33:13;21.08;;;12.77;;
76463;SDS011;65301;46.666;20.110;2022-12-29T09:36:14;23.63;;;12.32;;
76463;SDS011;65301;46.666;20.110;2022-12-29T09:39:16;19.48;;;12.43;;
76463;SDS011;65301;46.666;20.110;2022-12-29T09:42:19;20.58;;;12.70;;
76463;SDS011;65301;46.666;20.110;2022-12-29T09:45:33;22.53;;;12.73;;
76463;SDS011;65301;46.666;20.110;2022-12-29T09:48:44;19.05;;;12.25;;
76463;SDS011;65301;46.666;20.110;2022-12-29T09:51:54;19.48;;;12.15;;
76463;SDS011;65301;46.666;20.110;2022-12-29T09:55:04;19.60;;;12.38;;
76463;SDS011;65301;46.666;20.110;2022-12-29T09:58:28;17.20;;;11.32;;
76463;SDS011;65301;46.666;20.110;2022-12-29T10:01:50;19.47;;;10.97;;
76463;SDS011;65301;46.666;20.110;2022-12-29T10:04:58;18.92;;;11.90;;
76463;SDS011;65301;46.666;20.110;2022-12-29T10:08:04;16.98;;;11.30;;
76463;SDS011;65301;46.666;20.110;2022-12-29T10:23:58;15.82;;;11.32;;
76463;SDS011;65301;46.666;20.110;2022-12-29T10:27:03;16.92;;;11.00;;
76463;SDS011;65301;46.666;20.110;2022-12-29T10:30:10;18.08;;;12.25;;
76463;SDS011;65301;46.666;20.110;2022-12-29T10:33:21;18.23;;;11.80;;
76463;SDS011;65301;46.666;20.110;2022-12-29T10:36:39;19.60;;;11.75;;
76463;SDS011;65301;46.666;20.110;2022-12-29T10:39:53;20.48;;;12.05;;
76463;SDS011;65301;46.666;20.110;2022-12-29T10:42:57;18.98;;;11.85;;
76463;SDS011;65301;46.666;20.110;2022-12-29T10:46:02;20.45;;;11.73;;
76463;SDS011;65301;46.666;20.110;2022-12-29T10:49:11;20.70;;;12.37;;
76463;SDS011;65301;46.666;20.110;2022-12-29T10:52:22;21.50;;;13.85;;
76463;SDS011;65301;46.666;20.110;2022-12-29T10:55:32;18.35;;;11.93;;
76463;SDS011;65301;46.666;20.110;2022-12-29T10:58:38;21.25;;;12.55;;
76463;SDS011;65301;46.666;20.110;2022-12-29T11:05:27;25.53;;;12.33;;
76463;SDS011;65301;46.666;20.110;2022-12-29T11:08:31;18.65;;;12.55;;
76463;SDS011;65301;46.666;20.110;2022-12-29T11:11:37;20.85;;;13.73;;
76463;SDS011;65301;46.666;20.110;2022-12-29T11:14:38;21.38;;;13.52;;
76463;SDS011;65301;46.666;20.110;2022-12-29T11:17:48;21.60;;;13.80;;
76463;SDS011;65301;46.666;20.110;2022-12-29T11:20:54;19.17;;;11.90;;
76463;SDS011;65301;46.666;20.110;2022-12-29T11:24:01;20.95;;;12.73;;
76463;SDS011;65301;46.666;20.110;2022-12-29T11:27:14;20.13;;;12.85;;
76463;SDS011;65301;46.666;20.110;2022-12-29T11:30:24;22.92;;;13.38;;
76463;SDS011;65301;46.666;20.110;2022-12-29T11:33:28;22.05;;;13.07;;
76463;SDS011;65301;46.666;20.110;2022-12-29T11:36:30;23.00;;;13.53;;
76463;SDS011;65301;46.666;20.110;2022-12-29T11:46:36;18.88;;;11.52;;
76463;SDS011;65301;46.666;20.110;2022-12-29T11:49:43;20.52;;;12.50;;
76463;SDS011;65301;46.666;20.110;2022-12-29T11:52:56;23.30;;;12.87;;
76463;SDS011;65301;46.666;20.110;2022-12-29T11:56:00;20.73;;;12.15;;
76463;SDS011;65301;46.666;20.110;2022-12-29T12:02:35;21.45;;;12.50;;
76463;SDS011;65301;46.666;20.110;2022-12-29T12:05:54;23.35;;;13.05;;
76463;SDS011;65301;46.666;20.110;2022-12-29T12:09:06;24.63;;;13.83;;
76463;SDS011;65301;46.666;20.110;2022-12-29T12:12:28;20.75;;;12.93;;
76463;SDS011;65301;46.666;20.110;2022-12-29T12:15:40;20.50;;;13.90;;
76463;SDS011;65301;46.666;20.110;2022-12-29T12:18:56;25.35;;;15.35;;
76463;SDS011;65301;46.666;20.110;2022-12-29T12:22:10;28.88;;;16.35;;
76463;SDS011;65301;46.666;20.110;2022-12-29T12:25:37;30.20;;;18.17;;
76463;SDS011;65301;46.666;20.110;2022-12-29T12:29:01;26.55;;;15.95;;
76463;SDS011;65301;46.666;20.110;2022-12-29T12:45:42;28.00;;;14.63;;
76463;SDS011;65301;46.666;20.110;2022-12-29T13:06:02;24.60;;;14.82;;
76463;SDS011;65301;46.666;20.110;2022-12-29T13:16:13;26.00;;;14.50;;
76463;SDS011;65301;46.666;20.110;2022-12-29T13:19:38;24.38;;;14.30;;
76463;SDS011;65301;46.666;20.110;2022-12-29T13:26:21;25.25;;;14.85;;
76463;SDS011;65301;46.666;20.110;2022-12-29T13:29:37;24.25;;;15.20;;
76463;SDS011;65301;46.666;20.110;2022-12-29T13:39:23;25.23;;;16.35;;
76463;SDS011;65301;46.666;20.110;2022-12-29T13:42:30;23.02;;;14.73;;
76463;SDS011;65301;46.666;20.110;2022-12-29T13:45:33;22.05;;;14.38;;
76463;SDS011;65301;46.666;20.110;2022-12-29T13:48:41;21.23;;;13.77;;
76463;SDS011;65301;46.666;20.110;2022-12-29T13:51:55;23.90;;;13.77;;
76463;SDS011;65301;46.666;20.110;2022-12-29T13:55:02;23.95;;;14.70;;
76463;SDS011;65301;46.666;20.110;2022-12-29T13:58:31;25.00;;;14.85;;
76463;SDS011;65301;46.666;20.110;2022-12-29T14:05:31;33.83;;;17.50;;
76463;SDS011;65301;46.666;20.110;2022-12-29T14:08:34;31.65;;;18.67;;
76463;SDS011;65301;46.666;20.110;2022-12-29T14:11:39;39.90;;;21.48;;
76463;SDS011;65301;46.666;20.110;2022-12-29T14:14:42;33.47;;;21.35;;
76463;SDS011;65301;46.666;20.110;2022-12-29T14:17:44;34.53;;;20.13;;
76463;SDS011;65301;46.666;20.110;2022-12-29T14:21:17;29.30;;;16.30;;
76463;SDS011;65301;46.666;20.110;2022-12-29T14:27:43;33.25;;;19.30;;
76463;SDS011;65301;46.666;20.110;2022-12-29T14:30:53;31.85;;;18.73;;
76463;SDS011;65301;46.666;20.110;2022-12-29T14:37:21;29.80;;;17.50;;
76463;SDS011;65301;46.666;20.110;2022-12-29T14:40:28;26.92;;;16.40;;
76463;SDS011;65301;46.666;20.110;2022-12-29T14:43:29;29.15;;;16.42;;
76463;SDS011;65301;46.666;20.110;2022-12-29T14:49:55;31.67;;;17.73;;
76463;SDS011;65301;46.666;20.110;2022-12-29T14:53:04;28.63;;;16.63;;
76463;SDS011;65301;46.666;20.110;2022-12-29T14:56:09;29.58;;;16.95;;
76463;SDS011;65301;46.666;20.110;2022-12-29T14:59:13;33.63;;;19.00;;
76463;SDS011;65301;46.666;20.110;2022-12-29T15:02:16;36.50;;;20.75;;
76463;SDS011;65301;46.666;20.110;2022-12-29T15:08:59;58.53;;;28.70;;
76463;SDS011;65301;46.666;20.110;2022-12-29T15:12:13;57.83;;;28.33;;
76463;SDS011;65301;46.666;20.110;2022-12-29T15:15:43;78.63;;;39.53;;
76463;SDS011;65301;46.666;20.110;2022-12-29T15:18:44;83.55;;;44.95;;
76463;SDS011;65301;46.666;20.110;2022-12-29T15:21:46;66.70;;;36.42;;
76463;SDS011;65301;46.666;20.110;2022-12-29T15:24:52;64.43;;;33.37;;
76463;SDS011;65301;46.666;20.110;2022-12-29T15:28:02;60.38;;;31.00;;
76463;SDS011;65301;46.666;20.110;2022-12-29T15:31:10;50.20;;;27.40;;
76463;SDS011;65301;46.666;20.110;2022-12-29T15:34:14;48.22;;;24.58;;
76463;SDS011;65301;46.666;20.110;2022-12-29T15:37:24;45.35;;;23.60;;
76463;SDS011;65301;46.666;20.110;2022-12-29T15:40:31;42.50;;;23.43;;
76463;SDS011;65301;46.666;20.110;2022-12-29T15:46:51;45.65;;;23.88;;
76463;SDS011;65301;46.666;20.110;2022-12-29T15:49:53;46.35;;;25.33;;
76463;SDS011;65301;46.666;20.110;2022-12-29T15:53:11;42.85;;;24.98;;
76463;SDS011;65301;46.666;20.110;2022-12-29T15:56:18;46.03;;;24.50;;
76463;SDS011;65301;46.666;20.110;2022-12-29T15:59:27;45.30;;;26.00;;
76463;SDS011;65301;46.666;20.110;2022-12-29T16:02:33;45.72;;;25.65;;
76463;SDS011;65301;46.666;20.110;2022-12-29T16:05:39;36.63;;;21.35;;
76463;SDS011;65301;46.666;20.110;2022-12-29T16:08:41;35.45;;;20.80;;
76463;SDS011;65301;46.666;20.110;2022-12-29T16:11:44;36.80;;;21.13;;
76463;SDS011;65301;46.666;20.110;2022-12-29T16:14:53;37.90;;;21.95;;
76463;SDS011;65301;46.666;20.110;2022-12-29T16:17:58;36.63;;;22.85;;
76463;SDS011;65301;46.666;20.110;2022-12-29T16:21:01;33.63;;;21.67;;
76463;SDS011;65301;46.666;20.110;2022-12-29T16:24:07;36.83;;;21.65;;
76463;SDS011;65301;46.666;20.110;2022-12-29T16:27:21;34.27;;;20.50;;
76463;SDS011;65301;46.666;20.110;2022-12-29T16:30:29;35.58;;;20.73;;
76463;SDS011;65301;46.666;20.110;2022-12-29T16:33:46;38.30;;;22.20;;
76463;SDS011;65301;46.666;20.110;2022-12-29T16:36:59;42.97;;;23.50;;
76463;SDS011;65301;46.666;20.110;2022-12-29T16:40:25;41.58;;;23.42;;
76463;SDS011;65301;46.666;20.110;2022-12-29T16:43:34;40.53;;;24.00;;
76463;SDS011;65301;46.666;20.110;2022-12-29T16:47:02;46.50;;;24.80;;
76463;SDS011;65301;46.666;20.110;2022-12-29T16:50:12;34.35;;;20.55;;
76463;SDS011;65301;46.666;20.110;2022-12-29T16:53:34;32.60;;;19.65;;
76463;SDS011;65301;46.666;20.110;2022-12-29T16:56:41;84.00;;;39.75;;
76463;SDS011;65301;46.666;20.110;2022-12-29T16:59:46;62.70;;;28.30;;
76463;SDS011;65301;46.666;20.110;2022-12-29T17:02:52;57.78;;;27.15;;
76463;SDS011;65301;46.666;20.110;2022-12-29T17:05:57;58.25;;;26.88;;
76463;SDS011;65301;46.666;20.110;2022-12-29T17:08:59;46.25;;;23.70;;
76463;SDS011;65301;46.666;20.110;2022-12-29T17:12:01;32.20;;;21.02;;
76463;SDS011;65301;46.666;20.110;2022-12-29T17:15:14;35.60;;;20.77;;
76463;SDS011;65301;46.666;20.110;2022-12-29T17:18:22;32.15;;;19.13;;
76463;SDS011;65301;46.666;20.110;2022-12-29T17:21:23;37.70;;;21.40;;
76463;SDS011;65301;46.666;20.110;2022-12-29T17:24:26;35.40;;;20.58;;
76463;SDS011;65301;46.666;20.110;2022-12-29T17:27:29;31.63;;;20.05;;
76463;SDS011;65301;46.666;20.110;2022-12-29T17:30:35;38.57;;;21.67;;
76463;SDS011;65301;46.666;20.110;2022-12-29T17:33:37;45.35;;;23.13;;
76463;SDS011;65301;46.666;20.110;2022-12-29T17:36:42;44.88;;;23.60;;
76463;SDS011;65301;46.666;20.110;2022-12-29T17:39:44;48.78;;;23.60;;
76463;SDS011;65301;46.666;20.110;2022-12-29T17:42:49;46.15;;;23.05;;
76463;SDS011;65301;46.666;20.110;2022-12-29T17:45:54;38.77;;;22.53;;
76463;SDS011;65301;46.666;20.110;2022-12-29T17:48:58;38.17;;;21.75;;
76463;SDS011;65301;46.666;20.110;2022-12-29T17:51:59;40.95;;;23.38;;
76463;SDS011;65301;46.666;20.110;2022-12-29T17:55:01;40.88;;;23.75;;
76463;SDS011;65301;46.666;20.110;2022-12-29T17:58:16;38.75;;;22.08;;
76463;SDS011;65301;46.666;20.110;2022-12-29T18:01:19;39.77;;;22.93;;
76463;SDS011;65301;46.666;20.110;2022-12-29T18:04:22;40.85;;;22.63;;
76463;SDS011;65301;46.666;20.110;2022-12-29T18:07:27;41.42;;;23.85;;
76463;SDS011;65301;46.666;20.110;2022-12-29T18:10:36;47.95;;;25.02;;
76463;SDS011;65301;46.666;20.110;2022-12-29T18:13:40;43.25;;;24.92;;
76463;SDS011;65301;46.666;20.110;2022-12-29T18:16:47;45.20;;;25.97;;
76463;SDS011;65301;46.666;20.110;2022-12-29T18:19:49;40.33;;;23.15;;
76463;SDS011;65301;46.666;20.110;2022-12-29T18:22:55;40.38;;;24.63;;
76463;SDS011;65301;46.666;20.110;2022-12-29T18:25:58;40.50;;;22.63;;
76463;SDS011;65301;46.666;20.110;2022-12-29T18:29:05;79.70;;;41.95;;
76463;SDS011;65301;46.666;20.110;2022-12-29T18:32:13;45.17;;;26.87;;
76463;SDS011;65301;46.666;20.110;2022-12-29T18:35:17;42.95;;;25.88;;
76463;SDS011;65301;46.666;20.110;2022-12-29T18:38:26;36.67;;;21.65;;
76463;SDS011;65301;46.666;20.110;2022-12-29T18:41:28;39.53;;;23.08;;
76463;SDS011;65301;46.666;20.110;2022-12-29T18:44:30;40.08;;;22.77;;
76463;SDS011;65301;46.666;20.110;2022-12-29T18:47:32;41.53;;;22.37;;
76463;SDS011;65301;46.666;20.110;2022-12-29T18:50:34;44.72;;;23.92;;
76463;SDS011;65301;46.666;20.110;2022-12-29T18:53:35;45.80;;;24.45;;
76463;SDS011;65301;46.666;20.110;2022-12-29T18:56:38;64.82;;;34.65;;
76463;SDS011;65301;46.666;20.110;2022-12-29T18:59:40;61.13;;;32.75;;
76463;SDS011;65301;46.666;20.110;2022-12-29T19:02:42;50.53;;;27.23;;
76463;SDS011;65301;46.666;20.110;2022-12-29T19:05:45;54.05;;;26.95;;
76463;SDS011;65301;46.666;20.110;2022-12-29T19:08:47;58.65;;;30.83;;
76463;SDS011;65301;46.666;20.110;2022-12-29T19:11:49;55.65;;;28.40;;
76463;SDS011;65301;46.666;20.110;2022-12-29T19:14:51;53.83;;;28.33;;
76463;SDS011;65301;46.666;20.110;2022-12-29T19:17:53;46.13;;;25.83;;
76463;SDS011;65301;46.666;20.110;2022-12-29T19:21:16;60.60;;;29.80;;
76463;SDS011;65301;46.666;20.110;2022-12-29T19:24:20;84.80;;;39.95;;
76463;SDS011;65301;46.666;20.110;2022-12-29T19:27:22;71.15;;;32.80;;
76463;SDS011;65301;46.666;20.110;2022-12-29T19:30:23;60.15;;;29.85;;
76463;SDS011;65301;46.666;20.110;2022-12-29T19:33:25;49.13;;;27.37;;
76463;SDS011;65301;46.666;20.110;2022-12-29T19:36:28;43.88;;;24.00;;
76463;SDS011;65301;46.666;20.110;2022-12-29T19:39:30;41.28;;;22.95;;
76463;SDS011;65301;46.666;20.110;2022-12-29T19:42:32;44.70;;;23.88;;
76463;SDS011;65301;46.666;20.110;2022-12-29T19:45:36;43.53;;;24.00;;
76463;SDS011;65301;46.666;20.110;2022-12-29T19:48:39;45.80;;;24.67;;
76463;SDS011;65301;46.666;20.110;2022-12-29T19:51:41;48.13;;;25.85;;
76463;SDS011;65301;46.666;20.110;2022-12-29T19:54:43;46.83;;;25.50;;
76463;SDS011;65301;46.666;20.110;2022-12-29T19:57:44;52.72;;;26.92;;
76463;SDS011;65301;46.666;20.110;2022-12-29T20:00:46;45.65;;;25.60;;
76463;SDS011;65301;46.666;20.110;2022-12-29T20:03:49;42.07;;;24.10;;
76463;SDS011;65301;46.666;20.110;2022-12-29T20:06:52;60.95;;;31.48;;
76463;SDS011;65301;46.666;20.110;2022-12-29T20:09:53;52.70;;;28.20;;
76463;SDS011;65301;46.666;20.110;2022-12-29T20:12:55;49.90;;;26.48;;